Time;durP1;ratioP1;P1;durP2;ratioP2;P2;SDS_P1;SDS_P2;PMS_P1;PMS_P2;Temp;Humidity;BMP_temperature;BMP_pressure;BME280_temperature;BME280_humidity;BME280_pressure;Samples;Min_cycle;Max_cycle;Signal;HPM_P1;HPM_P2
2024/01/15 00:02:09;;;;;;;106.45;48.83;;;;;;;;;;4984849;28;20503;-72
2024/01/15 00:04:41;;;;;;;113.25;50.88;;;;;;;;;;4984425;28;20126;-73
2024/01/15 00:07:07;;;;;;;105.03;48.33;;;;;;;;;;4985053;28;20042;-72
2024/01/15 00:09:34;;;;;;;95.20;44.35;;;;;;;;;;4999078;28;20496;-73
2024/01/15 00:12:00;;;;;;;99.88;46.03;;;;;;;;;;5009053;28;20082;-72
2024/01/15 00:14:27;;;;;;;96.22;45.67;;;;;;;;;;5010706;28;20368;-72
2024/01/15 00:16:54;;;;;;;99.47;44.05;;;;;;;;;;5010531;28;20387;-71
2024/01/15 00:19:22;;;;;;;99.50;45.70;;;;;;;;;;5009968;28;20026;-72
2024/01/15 00:21:47;;;;;;;89.68;41.42;;;;;;;;;;5010838;28;20034;-73
2024/01/15 00:24:14;;;;;;;96.35;41.00;;;;;;;;;;4992888;28;20168;-72
2024/01/15 00:26:40;;;;;;;91.43;45.03;;;;;;;;;;5010770;28;20116;-72
2024/01/15 00:29:09;;;;;;;90.40;41.78;;;;;;;;;;4993350;28;20117;-72
2024/01/15 00:31:35;;;;;;;96.68;44.88;;;;;;;;;;5009451;28;20022;-72
2024/01/15 00:34:01;;;;;;;96.53;43.95;;;;;;;;;;4973413;28;20501;-73
2024/01/15 00:36:27;;;;;;;85.60;40.05;;;;;;;;;;4991103;28;20049;-73
2024/01/15 00:38:53;;;;;;;78.50;38.08;;;;;;;;;;4991523;28;20026;-73
2024/01/15 00:41:19;;;;;;;82.35;37.88;;;;;;;;;;4992182;28;20061;-72
2024/01/15 00:43:46;;;;;;;84.95;39.95;;;;;;;;;;4994404;28;20511;-73
2024/01/15 00:46:11;;;;;;;79.35;39.20;;;;;;;;;;4994745;28;20029;-72
2024/01/15 00:48:37;;;;;;;94.75;40.53;;;;;;;;;;4994587;28;20030;-72
2024/01/15 00:51:07;;;;;;;87.68;40.83;;;;;;;;;;4994842;28;20034;-72
2024/01/15 00:53:33;;;;;;;91.30;43.50;;;;;;;;;;4994808;28;20030;-72
2024/01/15 00:56:00;;;;;;;98.65;44.13;;;;;;;;;;4977222;28;20045;-72
2024/01/15 00:58:26;;;;;;;89.75;42.28;;;;;;;;;;4994667;28;20034;-73
2024/01/15 01:00:52;;;;;;;100.85;42.92;;;;;;;;;;4994546;28;20057;-72
2024/01/15 01:03:18;;;;;;;95.47;45.00;;;;;;;;;;4977113;28;20057;-73
2024/01/15 01:05:44;;;;;;;94.80;43.30;;;;;;;;;;4994422;28;20100;-72
2024/01/15 01:08:10;;;;;;;105.82;47.30;;;;;;;;;;4994112;28;20041;-72
2024/01/15 01:10:36;;;;;;;110.75;50.03;;;;;;;;;;4976823;28;20133;-73
2024/01/15 01:13:02;;;;;;;106.03;48.85;;;;;;;;;;4994885;28;20084;-72
2024/01/15 01:15:27;;;;;;;104.65;47.63;;;;;;;;;;4994148;28;20088;-72
2024/01/15 01:17:53;;;;;;;104.82;47.40;;;;;;;;;;4994376;28;20486;-72
2024/01/15 01:20:18;;;;;;;99.78;47.38;;;;;;;;;;4994046;28;20057;-72
2024/01/15 01:22:44;;;;;;;107.53;48.17;;;;;;;;;;4994023;28;20058;-72
2024/01/15 01:25:10;;;;;;;100.85;45.05;;;;;;;;;;4976494;28;20038;-72
2024/01/15 01:27:36;;;;;;;102.30;46.85;;;;;;;;;;4993878;28;20031;-73
2024/01/15 01:30:01;;;;;;;102.10;50.08;;;;;;;;;;4992815;28;20049;-72
2024/01/15 01:32:27;;;;;;;115.22;53.63;;;;;;;;;;4993850;28;20039;-72
2024/01/15 01:34:54;;;;;;;104.40;48.10;;;;;;;;;;4994033;28;20066;-73
2024/01/15 01:37:19;;;;;;;118.68;53.05;;;;;;;;;;4993646;28;20030;-72
2024/01/15 01:39:45;;;;;;;104.95;48.33;;;;;;;;;;4993845;28;20038;-73
2024/01/15 01:42:11;;;;;;;111.68;47.60;;;;;;;;;;4975966;28;20038;-72
2024/01/15 01:44:37;;;;;;;106.57;49.20;;;;;;;;;;4993356;28;20032;-73
2024/01/15 01:47:04;;;;;;;90.40;41.42;;;;;;;;;;4993639;28;20045;-72
2024/01/15 01:49:30;;;;;;;88.65;40.67;;;;;;;;;;4993448;28;20049;-73
2024/01/15 01:52:01;;;;;;;92.28;44.80;;;;;;;;;;4993647;28;20026;-73
2024/01/15 01:54:29;;;;;;;99.35;46.22;;;;;;;;;;4992842;28;20064;-72
2024/01/15 01:56:56;;;;;;;94.78;44.20;;;;;;;;;;4993226;28;20131;-72
2024/01/15 01:59:25;;;;;;;93.30;44.78;;;;;;;;;;4993488;28;20451;-72
2024/01/15 02:01:52;;;;;;;91.70;39.28;;;;;;;;;;4993375;28;20122;-73
2024/01/15 02:04:18;;;;;;;76.15;37.78;;;;;;;;;;4993248;28;20579;-73
2024/01/15 02:06:44;;;;;;;93.90;43.05;;;;;;;;;;4993218;28;20125;-72
2024/01/15 02:09:09;;;;;;;94.47;43.30;;;;;;;;;;4959665;28;20034;-72
2024/01/15 02:11:36;;;;;;;83.72;38.45;;;;;;;;;;4993199;28;20442;-72
2024/01/15 02:14:03;;;;;;;89.22;42.28;;;;;;;;;;4993002;28;20042;-72
2024/01/15 02:16:28;;;;;;;96.00;43.92;;;;;;;;;;4992884;28;20054;-72
2024/01/15 02:18:54;;;;;;;95.32;46.08;;;;;;;;;;4992888;28;20069;-72
2024/01/15 02:21:20;;;;;;;95.53;43.67;;;;;;;;;;4993081;28;20489;-72
2024/01/15 02:23:45;;;;;;;89.20;40.58;;;;;;;;;;4993038;28;20022;-72
2024/01/15 02:26:12;;;;;;;82.53;39.20;;;;;;;;;;4992737;28;20042;-72
2024/01/15 02:28:38;;;;;;;98.30;44.25;;;;;;;;;;4975705;28;20384;-72
2024/01/15 02:31:03;;;;;;;86.15;41.28;;;;;;;;;;4992690;28;20049;-72
2024/01/15 02:33:29;;;;;;;94.55;41.45;;;;;;;;;;4992641;28;20040;-72
2024/01/15 02:35:56;;;;;;;94.43;40.80;;;;;;;;;;4992603;28;20395;-72
2024/01/15 02:38:22;;;;;;;92.78;42.13;;;;;;;;;;4992599;28;20117;-72
2024/01/15 02:40:49;;;;;;;92.78;42.85;;;;;;;;;;4992568;28;20575;-72
2024/01/15 02:43:15;;;;;;;92.68;42.50;;;;;;;;;;4975274;28;20033;-72
2024/01/15 02:45:40;;;;;;;102.40;46.72;;;;;;;;;;4974928;28;20042;-72
2024/01/15 02:48:06;;;;;;;97.40;42.30;;;;;;;;;;4992530;28;20030;-72
2024/01/15 02:50:32;;;;;;;97.40;42.17;;;;;;;;;;4974950;28;20573;-73
2024/01/15 02:52:57;;;;;;;95.07;43.65;;;;;;;;;;4974918;28;20518;-72
2024/01/15 02:55:23;;;;;;;91.85;44.97;;;;;;;;;;4992075;28;20042;-72
2024/01/15 02:57:49;;;;;;;102.43;47.78;;;;;;;;;;4992509;28;20023;-72
2024/01/15 03:00:15;;;;;;;106.80;46.85;;;;;;;;;;4992178;28;20036;-72
2024/01/15 03:02:43;;;;;;;97.95;42.03;;;;;;;;;;4992098;28;20096;-72
2024/01/15 03:05:09;;;;;;;104.55;46.78;;;;;;;;;;5007144;28;20038;-71
2024/01/15 03:07:35;;;;;;;113.78;46.92;;;;;;;;;;4992367;28;20053;-73
2024/01/15 03:10:01;;;;;;;95.47;43.92;;;;;;;;;;4991881;28;20038;-72
2024/01/15 03:12:27;;;;;;;100.07;44.13;;;;;;;;;;4991991;28;20030;-72
2024/01/15 03:14:52;;;;;;;92.80;41.38;;;;;;;;;;4992093;28;20109;-73
2024/01/15 03:17:18;;;;;;;98.80;42.50;;;;;;;;;;4991992;28;20113;-72
2024/01/15 03:19:44;;;;;;;101.95;43.42;;;;;;;;;;4991973;28;20631;-72
2024/01/15 03:22:10;;;;;;;99.10;42.75;;;;;;;;;;4974235;28;20491;-72
2024/01/15 03:24:36;;;;;;;98.13;42.85;;;;;;;;;;4991458;28;20049;-72
2024/01/15 03:27:02;;;;;;;112.88;47.30;;;;;;;;;;4991604;28;20069;-72
2024/01/15 03:29:28;;;;;;;100.60;44.50;;;;;;;;;;4990374;28;20184;-72
2024/01/15 03:31:53;;;;;;;121.47;48.85;;;;;;;;;;4992072;28;20416;-72
2024/01/15 03:34:19;;;;;;;99.30;45.75;;;;;;;;;;4991206;28;20046;-72
2024/01/15 03:36:45;;;;;;;106.88;46.50;;;;;;;;;;4991701;28;20030;-73
2024/01/15 03:39:11;;;;;;;92.78;44.13;;;;;;;;;;4973783;28;20419;-72
2024/01/15 03:41:38;;;;;;;99.13;42.15;;;;;;;;;;4973997;28;20474;-72
2024/01/15 03:44:03;;;;;;;101.80;45.05;;;;;;;;;;4991747;28;20045;-72
2024/01/15 03:46:29;;;;;;;87.15;40.75;;;;;;;;;;4991452;28;20445;-73
2024/01/15 03:48:55;;;;;;;92.40;40.67;;;;;;;;;;4991512;28;20045;-71
2024/01/15 03:51:20;;;;;;;103.45;42.20;;;;;;;;;;4974310;28;20026;-71
2024/01/15 03:53:46;;;;;;;97.97;43.67;;;;;;;;;;4991321;28;20451;-71
2024/01/15 03:56:12;;;;;;;92.40;40.58;;;;;;;;;;4974288;28;20066;-72
2024/01/15 03:58:38;;;;;;;96.65;43.33;;;;;;;;;;4991817;28;20026;-72
2024/01/15 04:01:12;;;;;;;92.20;40.20;;;;;;;;;;4974490;28;20056;-72
2024/01/15 04:03:38;;;;;;;69.28;33.70;;;;;;;;;;4991353;28;20120;-73
2024/01/15 04:06:04;;;;;;;81.20;34.38;;;;;;;;;;4991036;28;20113;-73
2024/01/15 04:08:30;;;;;;;81.68;34.97;;;;;;;;;;4991060;28;20041;-73
2024/01/15 04:10:56;;;;;;;80.00;36.53;;;;;;;;;;4991475;28;20064;-72
2024/01/15 04:13:22;;;;;;;86.43;38.67;;;;;;;;;;4991177;28;20476;-72
2024/01/15 04:15:47;;;;;;;85.68;37.78;;;;;;;;;;4991390;28;20061;-72
2024/01/15 04:18:13;;;;;;;79.78;36.42;;;;;;;;;;4995659;28;20038;-72
2024/01/15 04:20:39;;;;;;;91.53;34.80;;;;;;;;;;4994753;28;20033;-72
2024/01/15 04:23:05;;;;;;;72.80;33.03;;;;;;;;;;4994593;28;20084;-72
2024/01/15 04:25:31;;;;;;;71.25;32.47;;;;;;;;;;4987696;28;20074;-72
2024/01/15 04:27:56;;;;;;;68.50;31.58;;;;;;;;;;4977579;28;20050;-73
2024/01/15 04:30:22;;;;;;;61.28;28.90;;;;;;;;;;5005987;28;20041;-73
2024/01/15 04:32:48;;;;;;;66.03;28.98;;;;;;;;;;5002028;28;20038;-73
2024/01/15 04:35:14;;;;;;;77.55;32.15;;;;;;;;;;4994705;28;20423;-72
2024/01/15 04:37:40;;;;;;;57.50;28.92;;;;;;;;;;4995295;28;20035;-72
2024/01/15 04:40:07;;;;;;;61.85;28.35;;;;;;;;;;5010108;28;20026;-73
2024/01/15 04:42:33;;;;;;;62.45;27.25;;;;;;;;;;4993723;28;20165;-72
2024/01/15 04:44:59;;;;;;;64.30;30.10;;;;;;;;;;5002911;28;20121;-71
2024/01/15 04:47:25;;;;;;;59.95;29.45;;;;;;;;;;5013812;28;20034;-73
2024/01/15 04:49:51;;;;;;;61.85;26.88;;;;;;;;;;4994510;28;20038;-73
2024/01/15 04:52:16;;;;;;;55.63;25.77;;;;;;;;;;4994916;28;20084;-72
2024/01/15 04:54:42;;;;;;;55.25;27.85;;;;;;;;;;4994037;28;20113;-72
2024/01/15 04:57:08;;;;;;;51.33;26.48;;;;;;;;;;4992945;28;20162;-72
2024/01/15 04:59:33;;;;;;;50.70;25.73;;;;;;;;;;4991652;28;20030;-72
2024/01/15 05:01:59;;;;;;;53.78;26.40;;;;;;;;;;4993984;28;20041;-72
2024/01/15 05:04:25;;;;;;;51.38;25.15;;;;;;;;;;4993489;28;20045;-72
2024/01/15 05:06:52;;;;;;;52.60;26.13;;;;;;;;;;4993558;28;20050;-71
2024/01/15 05:09:18;;;;;;;56.20;25.67;;;;;;;;;;4994294;28;20030;-72
2024/01/15 05:11:44;;;;;;;57.00;26.77;;;;;;;;;;4994086;28;20403;-72
2024/01/15 05:14:10;;;;;;;57.95;26.08;;;;;;;;;;4976341;28;20026;-72
2024/01/15 05:16:38;;;;;;;56.63;26.98;;;;;;;;;;4993611;28;20518;-73
2024/01/15 05:19:04;;;;;;;64.22;26.77;;;;;;;;;;4976079;28;20138;-72
2024/01/15 05:21:30;;;;;;;61.17;27.75;;;;;;;;;;4976993;28;20511;-72
2024/01/15 05:23:55;;;;;;;51.15;24.98;;;;;;;;;;4993747;28;20483;-73
2024/01/15 05:26:21;;;;;;;52.70;25.02;;;;;;;;;;4994090;28;20041;-73
2024/01/15 05:28:47;;;;;;;78.50;34.42;;;;;;;;;;4975697;28;20018;-71
2024/01/15 05:31:13;;;;;;;49.38;25.23;;;;;;;;;;4993716;28;20591;-71
2024/01/15 05:33:39;;;;;;;56.95;25.38;;;;;;;;;;4993504;28;20068;-73
2024/01/15 05:36:05;;;;;;;44.15;22.38;;;;;;;;;;4993838;28;20337;-72
2024/01/15 05:38:30;;;;;;;52.47;24.17;;;;;;;;;;4993960;28;20034;-72
2024/01/15 05:40:56;;;;;;;58.20;25.40;;;;;;;;;;5008298;28;20034;-74
2024/01/15 05:43:22;;;;;;;56.58;23.52;;;;;;;;;;4991573;28;20118;-72
2024/01/15 05:45:47;;;;;;;48.55;23.83;;;;;;;;;;4992722;28;20084;-72
2024/01/15 05:48:13;;;;;;;45.72;22.48;;;;;;;;;;4990261;28;20108;-72
2024/01/15 05:50:39;;;;;;;50.80;24.60;;;;;;;;;;4993141;28;20034;-72
2024/01/15 05:53:05;;;;;;;59.90;23.48;;;;;;;;;;4993594;28;20042;-74
2024/01/15 05:55:30;;;;;;;60.33;25.77;;;;;;;;;;4973762;28;20174;-74
2024/01/15 05:57:56;;;;;;;58.22;26.40;;;;;;;;;;5008430;28;20033;-75
2024/01/15 06:00:22;;;;;;;62.67;25.90;;;;;;;;;;4992386;28;20441;-73
2024/01/15 06:02:47;;;;;;;51.80;24.52;;;;;;;;;;4974720;28;20071;-74
2024/01/15 06:05:13;;;;;;;48.13;22.85;;;;;;;;;;4991332;28;20030;-74
2024/01/15 06:07:39;;;;;;;64.00;26.45;;;;;;;;;;4991798;28;20527;-75
2024/01/15 06:10:05;;;;;;;55.85;25.25;;;;;;;;;;4992167;28;20120;-75
2024/01/15 06:12:32;;;;;;;52.92;25.30;;;;;;;;;;4973521;28;20030;-73
2024/01/15 06:14:57;;;;;;;59.05;24.20;;;;;;;;;;4991191;28;20034;-74
2024/01/15 06:17:23;;;;;;;61.85;25.17;;;;;;;;;;4990543;28;20069;-74
2024/01/15 06:19:49;;;;;;;57.13;25.63;;;;;;;;;;5007296;28;20035;-73
2024/01/15 06:22:15;;;;;;;69.88;27.45;;;;;;;;;;4992421;28;20037;-72
2024/01/15 06:24:41;;;;;;;89.68;28.83;;;;;;;;;;5006339;28;20034;-73
2024/01/15 06:27:07;;;;;;;61.92;26.05;;;;;;;;;;5007501;28;20502;-74
2024/01/15 06:29:32;;;;;;;63.15;26.45;;;;;;;;;;4974448;28;20038;-73
2024/01/15 06:31:58;;;;;;;82.07;27.23;;;;;;;;;;4990291;28;20085;-73
2024/01/15 06:34:24;;;;;;;70.05;26.15;;;;;;;;;;4991595;28;20129;-72
2024/01/15 06:36:49;;;;;;;79.47;30.08;;;;;;;;;;4984673;28;20043;-73
2024/01/15 06:39:15;;;;;;;60.15;27.90;;;;;;;;;;4991481;28;20436;-74
2024/01/15 06:41:43;;;;;;;46.20;21.42;;;;;;;;;;5006964;28;20038;-74
2024/01/15 06:44:13;;;;;;;62.08;25.23;;;;;;;;;;4992153;28;20034;-74
2024/01/15 06:46:43;;;;;;;77.50;28.70;;;;;;;;;;4992378;28;20455;-73
2024/01/15 06:49:09;;;;;;;68.68;30.10;;;;;;;;;;4992169;28;20030;-73
2024/01/15 06:51:35;;;;;;;70.13;30.70;;;;;;;;;;4991614;28;20045;-73
2024/01/15 06:54:01;;;;;;;75.97;31.42;;;;;;;;;;4991944;28;20456;-73
2024/01/15 06:56:26;;;;;;;65.55;30.02;;;;;;;;;;4991737;28;20045;-73
2024/01/15 06:58:52;;;;;;;65.90;29.33;;;;;;;;;;4991413;28;20026;-73
2024/01/15 07:01:18;;;;;;;74.90;32.70;;;;;;;;;;4991552;28;20049;-74
2024/01/15 07:03:44;;;;;;;58.80;25.45;;;;;;;;;;4991774;28;20037;-74
2024/01/15 07:06:10;;;;;;;54.60;24.88;;;;;;;;;;4991662;28;20022;-72
2024/01/15 07:08:36;;;;;;;56.50;26.83;;;;;;;;;;4990796;28;20035;-74
2024/01/15 07:11:06;;;;;;;77.05;25.67;;;;;;;;;;4991734;28;20038;-74
2024/01/15 07:13:32;;;;;;;48.13;19.50;;;;;;;;;;4991446;28;20399;-74
2024/01/15 07:15:58;;;;;;;40.10;18.83;;;;;;;;;;4984116;28;20029;-73
2024/01/15 07:18:23;;;;;;;37.70;19.00;;;;;;;;;;4974508;28;20042;-73
2024/01/15 07:20:50;;;;;;;42.58;19.10;;;;;;;;;;4991425;28;20062;-75
2024/01/15 07:23:17;;;;;;;40.60;19.90;;;;;;;;;;4991469;28;20034;-73
2024/01/15 07:25:43;;;;;;;35.97;19.00;;;;;;;;;;4991811;28;20419;-72
2024/01/15 07:28:09;;;;;;;34.60;18.42;;;;;;;;;;4991971;28;20034;-73
2024/01/15 07:30:35;;;;;;;36.28;18.45;;;;;;;;;;4973228;28;20432;-73
2024/01/15 07:33:01;;;;;;;37.75;17.08;;;;;;;;;;4974116;28;20085;-74
2024/01/15 07:35:26;;;;;;;34.40;18.02;;;;;;;;;;4990682;28;20034;-73
2024/01/15 07:37:52;;;;;;;33.30;18.00;;;;;;;;;;4990523;28;20435;-72
2024/01/15 07:40:18;;;;;;;34.15;17.05;;;;;;;;;;4991290;28;20053;-74
2024/01/15 07:42:43;;;;;;;30.80;15.75;;;;;;;;;;4990503;28;20038;-73
2024/01/15 07:45:10;;;;;;;32.00;16.15;;;;;;;;;;4990379;28;20032;-73
2024/01/15 07:47:37;;;;;;;37.20;17.65;;;;;;;;;;4990283;28;20109;-72
2024/01/15 07:50:04;;;;;;;42.03;17.60;;;;;;;;;;4989989;28;20133;-76
2024/01/15 07:52:30;;;;;;;37.20;17.17;;;;;;;;;;4976404;28;20113;-76
2024/01/15 07:54:56;;;;;;;34.22;17.63;;;;;;;;;;4994449;28;20068;-74
2024/01/15 07:57:22;;;;;;;38.75;17.60;;;;;;;;;;4994725;28;20066;-75
2024/01/15 07:59:49;;;;;;;46.13;18.17;;;;;;;;;;4994362;28;20113;-75
2024/01/15 08:02:15;;;;;;;36.78;17.20;;;;;;;;;;4995288;28;20034;-73
2024/01/15 08:04:41;;;;;;;33.83;16.90;;;;;;;;;;4994478;28;20045;-76
2024/01/15 08:07:07;;;;;;;32.53;16.63;;;;;;;;;;4994963;28;20026;-75
2024/01/15 08:09:33;;;;;;;33.45;16.55;;;;;;;;;;4994821;28;20507;-74
2024/01/15 08:11:59;;;;;;;41.55;16.48;;;;;;;;;;4994478;28;20569;-75
2024/01/15 08:14:25;;;;;;;110.55;20.67;;;;;;;;;;4994300;28;20026;-77
2024/01/15 08:16:51;;;;;;;34.15;17.17;;;;;;;;;;4994740;28;20125;-74
2024/01/15 08:19:19;;;;;;;31.48;17.10;;;;;;;;;;4994863;28;20038;-74
2024/01/15 08:21:45;;;;;;;26.42;15.88;;;;;;;;;;4977645;28;20042;-75
2024/01/15 08:24:11;;;;;;;33.35;17.92;;;;;;;;;;4994563;28;20029;-76
2024/01/15 08:26:38;;;;;;;34.80;18.88;;;;;;;;;;4994701;28;20041;-76
2024/01/15 08:29:04;;;;;;;39.88;20.23;;;;;;;;;;4977217;28;20046;-74
2024/01/15 08:31:29;;;;;;;43.95;21.33;;;;;;;;;;4977312;28;20030;-74
2024/01/15 08:33:55;;;;;;;42.95;20.58;;;;;;;;;;4994567;28;20085;-75
2024/01/15 08:36:21;;;;;;;37.22;19.60;;;;;;;;;;4976886;28;20049;-76
2024/01/15 08:38:47;;;;;;;47.63;20.33;;;;;;;;;;4994384;28;20452;-76
2024/01/15 08:41:13;;;;;;;43.95;21.90;;;;;;;;;;4994139;28;20076;-76
2024/01/15 08:43:39;;;;;;;43.58;22.52;;;;;;;;;;4994835;28;20038;-75
2024/01/15 08:46:06;;;;;;;47.38;23.23;;;;;;;;;;4977769;28;20026;-75
2024/01/15 08:48:33;;;;;;;35.20;18.45;;;;;;;;;;4977454;28;20045;-75
2024/01/15 08:50:58;;;;;;;51.78;21.08;;;;;;;;;;4976378;28;20049;-74
2024/01/15 08:53:24;;;;;;;41.05;17.85;;;;;;;;;;4977060;28;20562;-76
2024/01/15 08:55:50;;;;;;;47.30;20.55;;;;;;;;;;4993322;28;20057;-74
2024/01/15 08:58:17;;;;;;;39.97;17.80;;;;;;;;;;4993714;28;20126;-75
2024/01/15 09:00:43;;;;;;;30.38;15.52;;;;;;;;;;4993736;28;20391;-74
2024/01/15 09:03:09;;;;;;;32.83;14.98;;;;;;;;;;4993043;28;20053;-75
2024/01/15 09:05:34;;;;;;;30.90;14.60;;;;;;;;;;4992317;28;20038;-75
2024/01/15 09:08:00;;;;;;;27.20;13.77;;;;;;;;;;4992977;28;20030;-75
2024/01/15 09:10:26;;;;;;;25.70;11.93;;;;;;;;;;4975053;28;20118;-74
2024/01/15 09:12:52;;;;;;;19.95;11.00;;;;;;;;;;4991471;28;20031;-74
2024/01/15 09:15:17;;;;;;;35.22;12.73;;;;;;;;;;4993158;28;20109;-75
2024/01/15 09:17:43;;;;;;;30.48;13.25;;;;;;;;;;4992663;28;20034;-76
2024/01/15 09:20:09;;;;;;;21.27;10.70;;;;;;;;;;4992976;28;20022;-76
2024/01/15 09:22:38;;;;;;;27.95;12.30;;;;;;;;;;4993048;28;20026;-76
2024/01/15 09:25:05;;;;;;;26.23;13.82;;;;;;;;;;4975241;28;20057;-76
2024/01/15 09:27:32;;;;;;;22.50;11.23;;;;;;;;;;4993019;28;20038;-74
2024/01/15 09:29:58;;;;;;;26.33;12.35;;;;;;;;;;4976078;28;20248;-74
2024/01/15 09:32:23;;;;;;;22.17;12.32;;;;;;;;;;4975515;28;20117;-74
2024/01/15 09:34:49;;;;;;;33.83;14.20;;;;;;;;;;4969049;28;20050;-76
2024/01/15 09:37:15;;;;;;;23.08;9.75;;;;;;;;;;4955832;28;20034;-75
2024/01/15 09:39:41;;;;;;;23.40;13.55;;;;;;;;;;4972731;28;20038;-74
2024/01/15 09:42:08;;;;;;;24.23;10.93;;;;;;;;;;4973082;28;20375;-76
2024/01/15 09:44:35;;;;;;;21.70;10.93;;;;;;;;;;4972438;28;20030;-75
2024/01/15 09:47:01;;;;;;;29.45;15.40;;;;;;;;;;4972891;28;20039;-76
2024/01/15 09:49:27;;;;;;;22.58;13.05;;;;;;;;;;4973365;28;20042;-76
2024/01/15 09:51:54;;;;;;;29.35;15.00;;;;;;;;;;4972886;28;20090;-77
2024/01/15 09:54:21;;;;;;;44.08;18.77;;;;;;;;;;4972378;28;20125;-76
2024/01/15 09:56:47;;;;;;;30.88;19.58;;;;;;;;;;4972801;28;20086;-75
2024/01/15 09:59:18;;;;;;;38.42;19.25;;;;;;;;;;4951723;28;20550;-72
2024/01/15 10:01:44;;;;;;;36.25;18.90;;;;;;;;;;4972944;28;20054;-75
2024/01/15 10:04:12;;;;;;;32.72;17.70;;;;;;;;;;4955383;28;20545;-75
2024/01/15 10:06:39;;;;;;;33.42;18.13;;;;;;;;;;4972640;28;20035;-74
2024/01/15 10:09:07;;;;;;;29.98;16.85;;;;;;;;;;4972081;28;20034;-76
2024/01/15 10:11:33;;;;;;;34.35;18.10;;;;;;;;;;4971748;28;20118;-75
2024/01/15 10:13:59;;;;;;;28.80;15.20;;;;;;;;;;4971490;28;20105;-75
2024/01/15 10:16:25;;;;;;;31.17;15.40;;;;;;;;;;4971776;28;20049;-76
2024/01/15 10:18:51;;;;;;;26.30;14.25;;;;;;;;;;4972543;28;20054;-76
2024/01/15 10:21:17;;;;;;;27.52;14.43;;;;;;;;;;4978941;28;20461;-76
2024/01/15 10:23:42;;;;;;;40.33;19.45;;;;;;;;;;4972274;28;20034;-75
2024/01/15 10:26:08;;;;;;;49.60;23.38;;;;;;;;;;4954271;28;20053;-75
2024/01/15 10:28:34;;;;;;;37.67;21.25;;;;;;;;;;4970654;28;20031;-75
2024/01/15 10:31:00;;;;;;;30.83;15.65;;;;;;;;;;4985784;28;20046;-75
2024/01/15 10:33:27;;;;;;;26.88;13.50;;;;;;;;;;4969922;28;20041;-75
2024/01/15 10:35:58;;;;;;;45.10;19.35;;;;;;;;;;4972451;28;20022;-75
2024/01/15 10:38:24;;;;;;;38.97;15.73;;;;;;;;;;4971260;28;20034;-75
2024/01/15 10:40:53;;;;;;;27.17;12.05;;;;;;;;;;4972258;28;20047;-76
2024/01/15 10:43:20;;;;;;;21.30;10.27;;;;;;;;;;4970368;28;20042;-75
2024/01/15 10:45:51;;;;;;;22.67;9.95;;;;;;;;;;4971367;28;20049;-76
2024/01/15 10:48:19;;;;;;;21.02;10.23;;;;;;;;;;4954302;28;20129;-76
2024/01/15 10:50:46;;;;;;;19.80;10.40;;;;;;;;;;4954110;28;20050;-76
2024/01/15 10:53:15;;;;;;;23.25;10.85;;;;;;;;;;4969189;28;20037;-76
2024/01/15 10:55:42;;;;;;;17.65;8.90;;;;;;;;;;4971283;28;20345;-76
2024/01/15 10:58:09;;;;;;;24.10;10.48;;;;;;;;;;4954754;28;20038;-75
2024/01/15 11:00:39;;;;;;;16.40;8.63;;;;;;;;;;4972162;28;20019;-74
2024/01/15 11:03:06;;;;;;;18.17;9.35;;;;;;;;;;4968945;28;20140;-75
2024/01/15 11:05:38;;;;;;;21.33;9.55;;;;;;;;;;4971803;28;20424;-75
2024/01/15 11:08:08;;;;;;;16.20;9.27;;;;;;;;;;4971857;28;20492;-75
2024/01/15 11:10:46;;;;;;;27.30;9.98;;;;;;;;;;4939259;28;20267;-75
2024/01/15 11:13:20;;;;;;;19.17;8.68;;;;;;;;;;4971224;28;20528;-74
2024/01/15 11:15:56;;;;;;;20.52;8.60;;;;;;;;;;4969987;28;20045;-76
2024/01/15 11:18:22;;;;;;;14.15;8.68;;;;;;;;;;4968537;28;20027;-75
2024/01/15 11:21:13;;;;;;;24.55;10.18;;;;;;;;;;4970312;28;20015;-74
2024/01/15 11:23:46;;;;;;;21.17;9.95;;;;;;;;;;4965793;28;20031;-75
2024/01/15 11:26:46;;;;;;;16.27;8.50;;;;;;;;;;4955101;28;20400;-75
2024/01/15 11:29:27;;;;;;;15.25;9.45;;;;;;;;;;4971544;28;20535;-75
2024/01/15 11:31:55;;;;;;;18.35;10.73;;;;;;;;;;4971329;28;20051;-75
2024/01/15 11:34:43;;;;;;;20.13;11.30;;;;;;;;;;4970850;28;20388;-75
2024/01/15 11:37:09;;;;;;;26.05;10.63;;;;;;;;;;4953385;28;20144;-77
2024/01/15 11:39:42;;;;;;;20.88;9.90;;;;;;;;;;4954782;28;20403;-74
2024/01/15 11:42:13;;;;;;;15.57;9.48;;;;;;;;;;4971755;28;20153;-74
2024/01/15 11:44:39;;;;;;;27.95;11.65;;;;;;;;;;4960356;28;20042;-73
2024/01/15 11:47:07;;;;;;;17.05;9.63;;;;;;;;;;4971744;28;20047;-74
2024/01/15 11:49:54;;;;;;;19.73;9.00;;;;;;;;;;4971822;28;20492;-75
2024/01/15 11:52:23;;;;;;;26.52;9.30;;;;;;;;;;4972233;28;20416;-75
2024/01/15 11:55:25;;;;;;;14.43;7.70;;;;;;;;;;4971427;28;20035;-73
2024/01/15 11:57:54;;;;;;;23.95;9.20;;;;;;;;;;4971822;28;20027;-77
2024/01/15 12:00:22;;;;;;;21.95;11.73;;;;;;;;;;4971572;28;20241;-75
2024/01/15 12:02:49;;;;;;;18.92;10.43;;;;;;;;;;4954093;28;20026;-76
2024/01/15 12:05:16;;;;;;;24.15;11.57;;;;;;;;;;4971142;28;20492;-71
2024/01/15 12:07:44;;;;;;;25.50;11.85;;;;;;;;;;4954346;28;20022;-75
2024/01/15 12:10:11;;;;;;;23.92;9.95;;;;;;;;;;4971424;28;20053;-77
2024/01/15 12:12:45;;;;;;;23.50;12.77;;;;;;;;;;4971660;28;20453;-75
2024/01/15 12:15:11;;;;;;;18.40;10.07;;;;;;;;;;4953097;28;20105;-73
2024/01/15 12:17:38;;;;;;;28.92;12.93;;;;;;;;;;4953661;28;20041;-75
2024/01/15 12:20:08;;;;;;;38.08;13.30;;;;;;;;;;4984599;28;20480;-77
2024/01/15 12:22:33;;;;;;;34.83;13.77;;;;;;;;;;4970228;28;20069;-77
2024/01/15 12:25:00;;;;;;;25.50;12.50;;;;;;;;;;4969294;28;20074;-74
2024/01/15 12:27:26;;;;;;;21.95;12.27;;;;;;;;;;4970554;28;20033;-74
2024/01/15 12:29:53;;;;;;;20.63;12.15;;;;;;;;;;4970681;28;20074;-76
2024/01/15 12:32:21;;;;;;;19.73;10.98;;;;;;;;;;4985310;28;20177;-75
2024/01/15 12:34:48;;;;;;;25.45;13.18;;;;;;;;;;4970781;28;20547;-77
2024/01/15 12:37:14;;;;;;;26.70;14.20;;;;;;;;;;4972270;28;20038;-74
2024/01/15 12:39:44;;;;;;;32.78;16.33;;;;;;;;;;4975281;28;20517;-72
2024/01/15 12:42:11;;;;;;;29.25;16.05;;;;;;;;;;4974380;28;20025;-74
2024/01/15 12:44:39;;;;;;;21.48;13.48;;;;;;;;;;4971324;28;20470;-75
2024/01/15 12:47:06;;;;;;;24.38;13.70;;;;;;;;;;4957107;28;20035;-72
2024/01/15 12:49:32;;;;;;;23.92;13.77;;;;;;;;;;4989176;28;20429;-74
2024/01/15 12:51:59;;;;;;;34.67;18.30;;;;;;;;;;4975338;28;20026;-74
2024/01/15 12:54:26;;;;;;;33.55;16.88;;;;;;;;;;4974315;28;20141;-75
2024/01/15 12:56:52;;;;;;;28.73;16.08;;;;;;;;;;4974373;28;20440;-71
2024/01/15 12:59:18;;;;;;;26.15;14.95;;;;;;;;;;4974058;28;20038;-78
2024/01/15 13:01:45;;;;;;;25.38;15.20;;;;;;;;;;4975390;28;20130;-77
2024/01/15 13:04:11;;;;;;;24.23;15.25;;;;;;;;;;4941457;28;20038;-76
2024/01/15 13:06:38;;;;;;;25.55;15.52;;;;;;;;;;4975735;28;20041;-78
2024/01/15 13:09:07;;;;;;;30.40;17.35;;;;;;;;;;4957911;28;20061;-74
2024/01/15 13:11:33;;;;;;;31.25;19.80;;;;;;;;;;4974779;28;20042;-78
2024/01/15 13:13:59;;;;;;;40.15;19.90;;;;;;;;;;4957326;28;20109;-78
2024/01/15 13:16:28;;;;;;;35.00;19.83;;;;;;;;;;4974491;28;20039;-77
2024/01/15 13:18:54;;;;;;;30.45;18.05;;;;;;;;;;4973876;28;20042;-78
2024/01/15 13:21:23;;;;;;;34.97;19.50;;;;;;;;;;4974862;28;20031;-78
2024/01/15 13:23:50;;;;;;;32.45;17.92;;;;;;;;;;4974637;28;20377;-77
2024/01/15 13:26:19;;;;;;;34.45;17.90;;;;;;;;;;4974347;28;20035;-77
2024/01/15 13:28:45;;;;;;;31.60;18.30;;;;;;;;;;4957790;28;20099;-77
2024/01/15 13:31:11;;;;;;;32.33;20.00;;;;;;;;;;4971838;28;20034;-78
2024/01/15 13:33:39;;;;;;;29.95;18.80;;;;;;;;;;4973070;28;20037;-76
2024/01/15 13:36:08;;;;;;;33.25;19.48;;;;;;;;;;4974566;28;20035;-77
2024/01/15 13:38:36;;;;;;;34.55;19.52;;;;;;;;;;4957600;28;20023;-76
2024/01/15 13:41:05;;;;;;;45.92;24.95;;;;;;;;;;4986867;28;20046;-76
2024/01/15 13:43:34;;;;;;;42.88;23.48;;;;;;;;;;4974042;28;20118;-75
2024/01/15 13:46:00;;;;;;;50.10;23.95;;;;;;;;;;4953763;28;20053;-77
2024/01/15 13:48:26;;;;;;;37.42;22.38;;;;;;;;;;4955352;28;20035;-76
2024/01/15 13:50:53;;;;;;;41.72;22.33;;;;;;;;;;4973274;28;20038;-74
2024/01/15 13:53:19;;;;;;;40.65;24.05;;;;;;;;;;4955982;28;20034;-77
2024/01/15 13:55:46;;;;;;;49.88;25.98;;;;;;;;;;4974257;28;20050;-78
2024/01/15 13:58:13;;;;;;;42.67;24.67;;;;;;;;;;4988744;28;20062;-79
2024/01/15 14:00:41;;;;;;;41.25;24.20;;;;;;;;;;4941223;28;20050;-78
2024/01/15 14:03:08;;;;;;;44.22;25.70;;;;;;;;;;4957147;28;20031;-78
2024/01/15 14:05:34;;;;;;;44.40;24.48;;;;;;;;;;4944354;28;20042;-77
2024/01/15 14:08:01;;;;;;;40.03;23.05;;;;;;;;;;4962193;28;20046;-77
2024/01/15 14:10:26;;;;;;;42.83;25.52;;;;;;;;;;4940145;28;20401;-78
2024/01/15 14:12:54;;;;;;;46.15;25.25;;;;;;;;;;4956463;28;20046;-78
2024/01/15 14:15:21;;;;;;;44.55;23.50;;;;;;;;;;4973624;28;20070;-78